createdAt,value
2022-12-16T00:00:31.971Z,33.40
2022-12-16T00:01:28.372Z,39.60
2022-12-16T00:02:23.746Z,45.20
2022-12-16T00:03:18.859Z,37.40
2022-12-16T00:04:14.009Z,35.40
2022-12-16T00:05:09.195Z,34.90
2022-12-16T00:06:04.493Z,33.70
2022-12-16T00:06:59.643Z,39.00
2022-12-16T00:07:54.881Z,33.90
2022-12-16T00:08:50.046Z,36.80
2022-12-16T00:09:45.337Z,36.30
2022-12-16T00:10:40.703Z,36.90
2022-12-16T00:11:35.769Z,38.40
2022-12-16T00:12:31.095Z,34.80
2022-12-16T00:13:26.202Z,33.50
2022-12-16T00:14:21.380Z,31.00
2022-12-16T00:15:16.584Z,35.30
2022-12-16T00:16:11.776Z,31.80
2022-12-16T00:17:06.962Z,37.60
2022-12-16T00:18:02.175Z,30.40
2022-12-16T00:18:57.403Z,31.60
2022-12-16T00:19:52.595Z,36.60
2022-12-16T00:20:47.863Z,36.40
2022-12-16T00:21:43.058Z,34.80
2022-12-16T00:22:38.418Z,31.10
2022-12-16T00:23:33.867Z,37.40
2022-12-16T00:24:28.761Z,34.30
2022-12-16T00:25:23.978Z,31.10
2022-12-16T00:26:19.189Z,33.30
2022-12-16T00:27:14.390Z,34.10
2022-12-16T00:28:09.628Z,31.60
2022-12-16T00:29:04.847Z,30.50
2022-12-16T00:30:00.030Z,36.00
2022-12-16T00:30:55.398Z,33.00
2022-12-16T00:31:50.539Z,36.50
2022-12-16T00:32:45.520Z,33.50
2022-12-16T00:33:40.625Z,31.00
2022-12-16T00:34:35.709Z,33.70
2022-12-16T00:35:30.813Z,38.20
2022-12-16T00:36:26.015Z,32.70
2022-12-16T00:37:21.127Z,34.70
2022-12-16T00:38:16.205Z,37.40
2022-12-16T00:39:11.301Z,30.40
2022-12-16T00:40:06.373Z,35.80
2022-12-16T00:41:01.487Z,38.20
2022-12-16T00:41:56.534Z,34.70
2022-12-16T00:42:51.646Z,34.90
2022-12-16T00:43:46.652Z,35.20
2022-12-16T00:44:41.782Z,34.90
2022-12-16T00:45:36.876Z,35.90
2022-12-16T00:46:31.964Z,32.60
2022-12-16T00:47:26.932Z,32.30
2022-12-16T00:48:22.017Z,34.20
2022-12-16T00:49:17.084Z,35.30
2022-12-16T00:50:16.514Z,33.20
2022-12-16T00:51:11.558Z,35.20
2022-12-16T00:52:06.641Z,33.40
2022-12-16T00:53:01.739Z,31.60
2022-12-16T00:53:56.967Z,30.30
2022-12-16T00:54:52.164Z,34.50
2022-12-16T00:55:47.377Z,35.30
2022-12-16T00:56:42.450Z,34.00
2022-12-16T00:57:37.567Z,30.80
2022-12-16T00:58:32.645Z,32.20
2022-12-16T00:59:27.694Z,36.00
2022-12-16T01:00:22.780Z,28.60
2022-12-16T01:01:17.971Z,33.20
2022-12-16T01:02:13.048Z,33.30
2022-12-16T01:03:08.161Z,33.60
2022-12-16T01:04:03.053Z,29.50
2022-12-16T01:04:58.161Z,34.00
2022-12-16T01:05:53.246Z,37.10
2022-12-16T01:06:51.186Z,33.70
2022-12-16T01:07:46.276Z,33.40
2022-12-16T01:08:41.611Z,33.10
2022-12-16T01:09:36.831Z,33.20
2022-12-16T01:10:32.206Z,33.10
2022-12-16T01:11:27.400Z,32.00
2022-12-16T01:12:22.644Z,33.80
2022-12-16T01:13:17.864Z,30.60
2022-12-16T01:14:13.227Z,32.00
2022-12-16T01:15:08.313Z,40.60
2022-12-16T01:16:03.699Z,31.40
2022-12-16T01:16:59.004Z,36.00
2022-12-16T01:17:54.219Z,34.50
2022-12-16T01:18:49.454Z,38.50
2022-12-16T01:19:44.713Z,31.90
2022-12-16T01:20:40.068Z,32.10
2022-12-16T01:21:35.413Z,34.80
2022-12-16T01:22:30.620Z,33.70
2022-12-16T01:23:25.847Z,35.50
2022-12-16T01:24:21.051Z,38.10
2022-12-16T01:25:16.258Z,36.00
2022-12-16T01:26:11.451Z,36.50
2022-12-16T01:27:06.700Z,36.30
2022-12-16T01:28:01.875Z,31.60
2022-12-16T01:28:57.374Z,35.10
2022-12-16T01:29:52.452Z,31.50
2022-12-16T01:30:47.671Z,32.70
2022-12-16T01:31:42.940Z,34.40
2022-12-16T01:32:38.149Z,36.30
2022-12-16T01:33:33.939Z,31.80
2022-12-16T01:34:28.648Z,32.00
2022-12-16T01:35:52.139Z,33.80
2022-12-16T01:36:20.121Z,33.20
2022-12-16T01:37:14.117Z,33.00
2022-12-16T01:38:13.415Z,30.90
2022-12-16T01:39:08.746Z,30.50
2022-12-16T01:40:04.009Z,33.50
2022-12-16T01:40:59.316Z,33.60
2022-12-16T01:41:54.428Z,32.50
2022-12-16T01:42:49.654Z,32.00
2022-12-16T01:43:44.863Z,34.20
2022-12-16T01:44:40.071Z,33.40
2022-12-16T01:45:35.403Z,33.40
2022-12-16T01:46:30.626Z,32.80
2022-12-16T01:47:25.994Z,31.80
2022-12-16T01:48:21.051Z,29.40
2022-12-16T01:49:16.421Z,33.60
2022-12-16T01:50:11.526Z,32.00
2022-12-16T01:51:06.746Z,32.20
2022-12-16T01:52:01.957Z,34.30
2022-12-16T01:52:57.199Z,33.80
2022-12-16T01:53:52.409Z,33.90
2022-12-16T01:54:47.654Z,33.70
2022-12-16T01:55:42.859Z,30.70
2022-12-16T01:56:38.095Z,30.50
2022-12-16T01:57:33.345Z,34.00
2022-12-16T01:58:28.580Z,34.40
2022-12-16T01:59:23.906Z,33.90
2022-12-16T02:00:19.138Z,33.60
2022-12-16T02:01:14.565Z,29.20
2022-12-16T02:02:09.900Z,30.70
2022-12-16T02:03:05.054Z,31.10
2022-12-16T02:04:00.235Z,33.90
2022-12-16T02:04:55.479Z,35.60
2022-12-16T02:05:50.689Z,35.80
2022-12-16T02:06:46.094Z,33.60
2022-12-16T02:07:41.179Z,33.70
2022-12-16T02:08:36.421Z,33.90
2022-12-16T02:09:31.652Z,31.30
2022-12-16T02:10:27.048Z,36.80
2022-12-16T02:11:22.397Z,35.90
2022-12-16T02:12:17.539Z,32.80
2022-12-16T02:13:12.759Z,32.50
2022-12-16T02:14:07.990Z,34.70
2022-12-16T02:15:03.313Z,33.10
2022-12-16T02:15:58.405Z,29.00
2022-12-16T02:16:53.694Z,31.50
2022-12-16T02:17:48.990Z,32.50
2022-12-16T02:18:44.324Z,30.20
2022-12-16T02:19:39.567Z,30.90
2022-12-16T02:20:34.781Z,30.40
2022-12-16T02:21:30.022Z,31.10
2022-12-16T02:22:25.272Z,30.50
2022-12-16T02:23:20.652Z,34.70
2022-12-16T02:24:15.747Z,28.90
2022-12-16T02:25:10.941Z,31.50
2022-12-16T02:26:06.154Z,34.10
2022-12-16T02:27:01.527Z,34.30
2022-12-16T02:27:56.714Z,34.90
2022-12-16T02:28:52.075Z,30.20
2022-12-16T02:29:47.233Z,30.80
2022-12-16T02:30:42.520Z,29.00
2022-12-16T02:31:37.718Z,27.70
2022-12-16T02:32:32.965Z,31.70
2022-12-16T02:33:28.203Z,34.50
2022-12-16T02:34:23.417Z,31.40
2022-12-16T02:35:18.762Z,33.10
2022-12-16T02:36:13.899Z,29.60
2022-12-16T02:37:09.109Z,29.10
2022-12-16T02:38:04.357Z,30.80
2022-12-16T02:38:59.555Z,28.50
2022-12-16T02:39:54.934Z,26.20
2022-12-16T02:40:50.073Z,28.10
2022-12-16T02:41:45.289Z,30.30
2022-12-16T02:42:40.503Z,30.50
2022-12-16T02:43:36.257Z,30.10
2022-12-16T02:44:30.956Z,32.50
2022-12-16T02:45:26.122Z,32.50
2022-12-16T02:46:21.203Z,29.50
2022-12-16T02:47:16.264Z,28.60
2022-12-16T02:48:11.465Z,29.80
2022-12-16T02:49:06.683Z,28.80
2022-12-16T02:50:01.670Z,28.60
2022-12-16T02:50:56.756Z,27.00
2022-12-16T02:51:51.840Z,29.80
2022-12-16T02:52:47.067Z,27.60
2022-12-16T02:53:42.032Z,30.40
2022-12-16T02:54:37.123Z,28.70
2022-12-16T02:55:32.373Z,30.00
2022-12-16T02:56:27.317Z,29.30
2022-12-16T02:57:22.390Z,30.00
2022-12-16T02:58:17.444Z,30.10
2022-12-16T02:59:12.538Z,30.90
2022-12-16T03:00:07.650Z,23.60
2022-12-16T03:01:02.773Z,27.70
2022-12-16T03:01:57.874Z,27.30
2022-12-16T03:02:53.161Z,31.70
2022-12-16T03:03:48.066Z,30.40
2022-12-16T03:04:43.064Z,27.30
2022-12-16T03:05:38.137Z,30.70
2022-12-16T03:06:33.125Z,29.60
2022-12-16T03:07:28.236Z,30.60
2022-12-16T03:08:23.305Z,31.20
2022-12-16T03:09:18.405Z,27.80
2022-12-16T03:10:13.484Z,33.00
2022-12-16T03:11:08.588Z,31.30
2022-12-16T03:12:03.658Z,29.10
2022-12-16T03:12:58.762Z,33.40
2022-12-16T03:13:53.835Z,30.70
2022-12-16T03:14:49.180Z,29.90
2022-12-16T03:15:44.408Z,32.00
2022-12-16T03:16:39.873Z,34.80
2022-12-16T03:17:34.835Z,30.80
2022-12-16T03:18:29.943Z,32.60
2022-12-16T03:19:25.033Z,28.70
2022-12-16T03:20:20.130Z,29.80
2022-12-16T03:21:15.333Z,38.10
2022-12-16T03:22:10.542Z,34.30
2022-12-16T03:23:05.517Z,32.90
2022-12-16T03:24:00.597Z,35.20
2022-12-16T03:24:55.691Z,37.50
2022-12-16T03:25:50.912Z,35.70
2022-12-16T03:26:46.040Z,40.60
2022-12-16T03:27:41.146Z,38.40
2022-12-16T03:28:36.239Z,39.40
2022-12-16T03:29:31.485Z,38.60
2022-12-16T03:30:26.466Z,37.80
2022-12-16T03:31:21.613Z,35.30
2022-12-16T03:32:16.556Z,34.70
2022-12-16T03:33:11.649Z,38.90
2022-12-16T03:34:06.688Z,36.50
2022-12-16T03:35:01.830Z,36.80
2022-12-16T03:35:56.767Z,37.40
2022-12-16T03:36:51.858Z,38.10
2022-12-16T03:37:46.943Z,45.70
2022-12-16T03:38:42.049Z,39.80
2022-12-16T03:39:37.013Z,40.50
2022-12-16T03:40:32.120Z,38.80
2022-12-16T03:41:27.181Z,40.30
2022-12-16T03:42:22.272Z,39.90
2022-12-16T03:43:17.363Z,40.40
2022-12-16T03:44:12.462Z,35.20
2022-12-16T03:45:07.575Z,38.40
2022-12-16T03:46:02.567Z,42.30
2022-12-16T03:46:57.654Z,34.10
2022-12-16T03:47:52.867Z,38.20
2022-12-16T03:48:48.100Z,41.10
2022-12-16T03:49:43.525Z,38.90
2022-12-16T03:50:38.470Z,36.30
2022-12-16T03:51:33.621Z,40.70
2022-12-16T03:52:28.569Z,40.60
2022-12-16T03:53:23.797Z,35.40
2022-12-16T03:54:18.867Z,36.60
2022-12-16T03:55:14.003Z,33.90
2022-12-16T03:56:08.961Z,35.80
2022-12-16T03:57:04.061Z,40.20
2022-12-16T03:57:59.172Z,39.30
2022-12-16T03:58:54.248Z,35.20
2022-12-16T03:59:49.347Z,36.60
2022-12-16T04:00:44.470Z,36.00
2022-12-16T04:01:39.599Z,33.20
2022-12-16T04:02:34.770Z,34.70
2022-12-16T04:03:30.053Z,37.10
2022-12-16T04:04:24.850Z,38.00
2022-12-16T04:05:19.927Z,35.00
2022-12-16T04:06:15.007Z,34.10
2022-12-16T04:07:10.267Z,38.00
2022-12-16T04:08:05.380Z,35.90
2022-12-16T04:09:00.613Z,39.10
2022-12-16T04:09:55.712Z,35.50
2022-12-16T04:10:50.672Z,37.30
2022-12-16T04:11:45.755Z,39.30
2022-12-16T04:12:40.878Z,34.80
2022-12-16T04:13:36.253Z,41.50
2022-12-16T04:14:30.900Z,43.80
2022-12-16T04:15:25.990Z,41.60
2022-12-16T04:16:21.140Z,38.40
2022-12-16T04:17:16.224Z,39.40
2022-12-16T04:18:11.316Z,39.20
2022-12-16T04:19:06.708Z,39.60
2022-12-16T04:20:01.832Z,38.20
2022-12-16T04:20:57.037Z,38.40
2022-12-16T04:21:52.292Z,41.90
2022-12-16T04:22:47.719Z,36.40
2022-12-16T04:23:42.673Z,35.20
2022-12-16T04:24:37.803Z,38.10
2022-12-16T04:25:32.890Z,36.90
2022-12-16T04:26:28.043Z,40.60
2022-12-16T04:27:23.003Z,38.00
2022-12-16T04:28:18.080Z,41.30
2022-12-16T04:29:13.180Z,38.20
2022-12-16T04:30:08.281Z,37.60
2022-12-16T04:31:03.296Z,41.10
2022-12-16T04:31:58.306Z,35.40
2022-12-16T04:32:53.275Z,32.10
2022-12-16T04:33:48.425Z,35.10
2022-12-16T04:34:43.513Z,36.30
2022-12-16T04:35:38.635Z,37.40
2022-12-16T04:36:33.765Z,38.30
2022-12-16T04:37:28.857Z,40.40
2022-12-16T04:38:23.948Z,38.40
2022-12-16T04:39:19.064Z,33.00
2022-12-16T04:40:14.124Z,38.00
2022-12-16T04:41:09.285Z,35.50
2022-12-16T04:42:04.230Z,35.30
2022-12-16T04:42:59.257Z,35.00
2022-12-16T04:43:54.264Z,34.70
2022-12-16T04:44:49.377Z,40.10
2022-12-16T04:45:44.431Z,31.00
2022-12-16T04:46:39.630Z,37.70
2022-12-16T04:47:34.577Z,35.50
2022-12-16T04:48:29.678Z,38.60
2022-12-16T04:49:24.913Z,41.40
2022-12-16T04:50:20.159Z,35.80
2022-12-16T04:51:15.364Z,35.60
2022-12-16T04:52:10.756Z,39.30
2022-12-16T04:53:05.857Z,35.50
2022-12-16T04:54:01.091Z,31.90
2022-12-16T04:54:56.322Z,42.60
2022-12-16T04:55:51.698Z,38.20
2022-12-16T04:56:46.776Z,35.70
2022-12-16T04:59:10.899Z,33.00
2022-12-16T05:00:07.789Z,37.10
2022-12-16T05:01:01.237Z,41.20
2022-12-16T05:01:56.558Z,35.20
2022-12-16T05:02:51.853Z,35.40
2022-12-16T05:03:47.186Z,35.10
2022-12-16T05:04:42.307Z,37.20
2022-12-16T05:05:37.520Z,43.80
2022-12-16T05:06:32.716Z,42.90
2022-12-16T05:07:30.020Z,38.80
2022-12-16T05:08:23.141Z,41.40
2022-12-16T05:09:18.543Z,37.20
2022-12-16T05:10:13.618Z,34.40
2022-12-16T05:11:08.946Z,41.00
2022-12-16T05:12:04.171Z,44.30
2022-12-16T05:12:59.534Z,39.90
2022-12-16T05:13:54.781Z,44.60
2022-12-16T05:14:50.033Z,42.70
2022-12-16T05:15:45.352Z,37.90
2022-12-16T05:16:40.680Z,36.50
2022-12-16T05:17:35.784Z,38.60
2022-12-16T05:18:31.070Z,36.40
2022-12-16T05:19:31.490Z,35.30
2022-12-16T05:20:22.597Z,34.40
2022-12-16T05:21:16.911Z,40.00
2022-12-16T05:22:12.099Z,38.30
2022-12-16T05:23:07.285Z,38.80
2022-12-16T05:24:02.541Z,38.50
2022-12-16T05:24:57.754Z,37.00
2022-12-16T05:25:53.130Z,37.80
2022-12-16T05:26:48.232Z,39.20
2022-12-16T05:27:43.591Z,37.40
2022-12-16T05:28:38.819Z,40.60
2022-12-16T05:29:34.023Z,38.00
2022-12-16T05:30:33.486Z,38.30
2022-12-16T05:31:24.624Z,33.30
2022-12-16T05:32:19.796Z,41.50
2022-12-16T05:33:15.161Z,37.40
2022-12-16T05:34:10.381Z,37.10
2022-12-16T05:35:05.734Z,37.30
2022-12-16T05:36:01.098Z,38.00
2022-12-16T05:36:56.223Z,36.00
2022-12-16T05:37:51.434Z,37.20
2022-12-16T05:38:46.669Z,41.70
2022-12-16T05:39:41.938Z,37.90
2022-12-16T05:40:37.147Z,36.90
2022-12-16T05:41:32.407Z,39.80
2022-12-16T05:42:27.614Z,35.90
2022-12-16T05:43:23.024Z,38.60
2022-12-16T05:44:18.253Z,39.60
2022-12-16T05:45:13.527Z,42.50
2022-12-16T05:46:08.946Z,37.80
2022-12-16T05:47:04.125Z,38.60
2022-12-16T05:47:59.305Z,32.30
2022-12-16T05:48:54.735Z,37.30
2022-12-16T05:49:49.837Z,39.30
2022-12-16T05:50:45.103Z,40.80
2022-12-16T05:51:40.311Z,37.10
2022-12-16T05:52:35.703Z,37.20
2022-12-16T05:53:31.218Z,36.90
2022-12-16T05:54:26.174Z,42.40
2022-12-16T05:55:21.422Z,40.90
2022-12-16T05:56:16.810Z,42.50
2022-12-16T05:57:11.921Z,39.70
2022-12-16T05:58:07.214Z,39.40
2022-12-16T05:59:02.446Z,37.80
2022-12-16T05:59:57.854Z,40.30
2022-12-16T06:00:53.090Z,43.00
2022-12-16T06:01:48.420Z,41.10
2022-12-16T06:02:43.896Z,40.70
2022-12-16T06:03:39.318Z,37.00
2022-12-16T06:04:34.329Z,39.90
2022-12-16T06:05:29.570Z,39.00
2022-12-16T06:06:24.936Z,36.80
2022-12-16T06:07:20.044Z,37.80
2022-12-16T06:08:15.276Z,34.00
2022-12-16T06:09:10.524Z,34.30
2022-12-16T06:10:05.768Z,34.90
2022-12-16T06:11:00.993Z,39.80
2022-12-16T06:11:56.239Z,40.20
2022-12-16T06:12:51.477Z,37.70
2022-12-16T06:13:46.718Z,39.00
2022-12-16T06:14:41.972Z,34.50
2022-12-16T06:15:37.183Z,38.40
2022-12-16T06:16:32.625Z,33.00
2022-12-16T06:17:27.693Z,35.00
2022-12-16T06:18:22.938Z,35.30
2022-12-16T06:19:18.205Z,39.40
2022-12-16T06:20:13.589Z,38.50
2022-12-16T06:21:08.837Z,30.90
2022-12-16T06:22:04.131Z,30.70
2022-12-16T06:22:59.385Z,31.50
2022-12-16T06:23:54.619Z,37.20
2022-12-16T06:24:49.863Z,34.30
2022-12-16T06:25:45.219Z,34.30
2022-12-16T06:26:40.575Z,31.50
2022-12-16T06:27:35.712Z,31.30
2022-12-16T06:28:30.985Z,31.40
2022-12-16T06:29:26.265Z,30.60
2022-12-16T06:30:21.505Z,29.60
2022-12-16T06:31:16.839Z,27.70
2022-12-16T06:32:11.983Z,29.30
2022-12-16T06:33:07.279Z,29.00
2022-12-16T06:34:02.543Z,31.40
2022-12-16T06:34:57.832Z,29.50
2022-12-16T06:35:53.058Z,27.80
2022-12-16T06:36:48.476Z,33.80
2022-12-16T06:37:43.594Z,28.20
2022-12-16T06:38:38.995Z,34.00
2022-12-16T06:39:34.258Z,30.80
2022-12-16T06:40:29.517Z,32.20
2022-12-16T06:41:24.783Z,30.50
2022-12-16T06:42:20.068Z,28.50
2022-12-16T06:43:15.386Z,30.10
2022-12-16T06:44:10.657Z,30.00
2022-12-16T06:45:05.894Z,26.40
2022-12-16T06:46:01.173Z,30.10
2022-12-16T06:46:56.608Z,31.80
2022-12-16T06:47:51.783Z,31.10
2022-12-16T06:48:47.035Z,29.00
2022-12-16T06:49:42.329Z,30.00
2022-12-16T06:50:40.505Z,30.80
2022-12-16T06:51:33.844Z,31.40
2022-12-16T06:52:28.150Z,31.00
2022-12-16T06:53:23.443Z,31.10
2022-12-16T06:54:18.702Z,33.20
2022-12-16T06:55:13.989Z,28.20
2022-12-16T06:56:10.103Z,30.30
2022-12-16T06:57:04.680Z,32.70
2022-12-16T06:57:59.811Z,36.40
2022-12-16T06:58:55.103Z,65.50
2022-12-16T06:59:50.385Z,45.20
2022-12-16T07:00:45.682Z,36.70
2022-12-16T07:01:41.098Z,35.50
2022-12-16T07:02:36.279Z,31.90
2022-12-16T07:03:35.573Z,34.20
2022-12-16T07:04:26.846Z,29.10
2022-12-16T07:05:22.123Z,28.80
2022-12-16T07:06:17.478Z,30.70
2022-12-16T07:07:12.904Z,31.70
2022-12-16T07:08:08.105Z,34.20
2022-12-16T07:09:03.403Z,29.70
2022-12-16T07:09:58.710Z,31.40
2022-12-16T07:10:54.956Z,30.00
2022-12-16T07:11:49.449Z,30.00
2022-12-16T07:12:44.782Z,32.30
2022-12-16T07:13:39.927Z,31.80
2022-12-16T07:14:35.212Z,31.30
2022-12-16T07:15:30.562Z,29.80
2022-12-16T07:16:25.890Z,36.40
2022-12-16T07:17:21.400Z,31.80
2022-12-16T07:18:16.556Z,31.20
2022-12-16T07:19:11.860Z,38.30
2022-12-16T07:20:07.178Z,36.00
2022-12-16T07:21:02.668Z,31.90
2022-12-16T07:21:57.827Z,33.50
2022-12-16T07:23:02.485Z,33.00
2022-12-16T07:23:49.486Z,32.10
2022-12-16T07:24:43.859Z,33.80
2022-12-16T07:25:39.162Z,33.20
2022-12-16T07:26:34.494Z,34.70
2022-12-16T07:27:29.823Z,35.10
2022-12-16T07:28:25.175Z,36.30
2022-12-16T07:29:20.613Z,33.20
2022-12-16T07:30:15.835Z,33.70
2022-12-16T07:31:11.200Z,32.30
2022-12-16T07:32:06.563Z,32.70
2022-12-16T07:33:01.833Z,31.80
2022-12-16T07:33:57.101Z,37.20
2022-12-16T07:34:52.401Z,32.00
2022-12-16T07:35:47.885Z,34.20
2022-12-16T07:36:43.191Z,38.10
2022-12-16T07:37:38.510Z,33.50
2022-12-16T07:38:33.783Z,36.90
2022-12-16T07:39:29.239Z,32.40
2022-12-16T07:40:24.434Z,36.10
2022-12-16T07:41:19.768Z,34.10
2022-12-16T07:42:15.085Z,34.40
2022-12-16T07:43:10.953Z,32.70
2022-12-16T07:44:06.240Z,34.50
2022-12-16T07:45:01.648Z,36.20
2022-12-16T07:45:56.980Z,33.20
2022-12-16T07:46:52.429Z,37.70
2022-12-16T07:47:47.681Z,39.30
2022-12-16T07:48:43.088Z,33.50
2022-12-16T07:49:38.321Z,34.10
2022-12-16T07:50:33.706Z,32.30
2022-12-16T07:51:29.051Z,34.90
2022-12-16T07:52:24.441Z,32.60
2022-12-16T07:53:19.793Z,34.70
2022-12-16T07:54:15.181Z,35.40
2022-12-16T07:55:10.520Z,36.10
2022-12-16T07:56:05.906Z,41.60
2022-12-16T07:57:01.522Z,33.20
2022-12-16T07:57:56.692Z,39.20
2022-12-16T07:58:52.036Z,33.60
2022-12-16T07:59:47.509Z,35.70
2022-12-16T08:00:42.698Z,34.30
2022-12-16T08:01:38.344Z,32.90
2022-12-16T08:02:33.593Z,33.20
2022-12-16T08:03:28.518Z,30.10
2022-12-16T08:04:23.501Z,34.40
2022-12-16T08:05:18.619Z,35.70
2022-12-16T08:06:13.726Z,36.70
2022-12-16T08:07:08.855Z,36.80
2022-12-16T08:08:03.846Z,33.90
2022-12-16T08:08:58.944Z,33.10
2022-12-16T08:09:53.910Z,35.00
2022-12-16T08:10:48.994Z,35.10
2022-12-16T08:11:44.033Z,32.60
2022-12-16T08:12:39.300Z,37.80
2022-12-16T08:13:34.691Z,35.00
2022-12-16T08:14:29.254Z,33.20
2022-12-16T08:15:24.320Z,39.40
2022-12-16T08:16:19.481Z,39.10
2022-12-16T08:17:14.574Z,36.00
2022-12-16T08:18:09.578Z,35.80
2022-12-16T08:19:10.746Z,35.60
2022-12-16T08:20:01.480Z,36.30
2022-12-16T08:20:55.907Z,36.80
2022-12-16T08:21:51.422Z,36.40
2022-12-16T08:22:46.674Z,33.90
2022-12-16T08:23:42.013Z,32.60
2022-12-16T08:24:37.367Z,34.90
2022-12-16T08:25:32.726Z,31.30
2022-12-16T08:26:28.095Z,31.70
2022-12-16T08:27:23.488Z,32.30
2022-12-16T08:28:18.892Z,33.90
2022-12-16T08:29:42.462Z,33.00
2022-12-16T08:30:10.707Z,38.60
2022-12-16T08:31:05.028Z,36.10
2022-12-16T08:32:00.498Z,33.40
2022-12-16T08:32:59.627Z,31.30
2022-12-16T08:33:52.074Z,32.60
2022-12-16T08:34:46.558Z,32.10
2022-12-16T08:35:41.926Z,31.70
2022-12-16T08:36:37.273Z,33.40
2022-12-16T08:37:32.642Z,33.50
2022-12-16T08:38:28.022Z,32.60
2022-12-16T08:39:23.685Z,34.60
2022-12-16T08:40:34.904Z,32.20
2022-12-16T08:41:15.331Z,31.70
2022-12-16T08:42:09.805Z,29.40
2022-12-16T08:43:10.848Z,35.20
2022-12-16T08:44:00.854Z,31.00
2022-12-16T08:44:54.976Z,30.10
2022-12-16T08:45:51.549Z,32.30
2022-12-16T08:46:47.095Z,29.80
2022-12-16T08:47:42.513Z,34.70
2022-12-16T08:48:37.944Z,35.80
2022-12-16T08:49:33.428Z,31.80
2022-12-16T08:50:28.722Z,35.90
2022-12-16T08:51:24.132Z,31.80
2022-12-16T08:52:19.651Z,33.70
2022-12-16T08:53:14.950Z,32.30
2022-12-16T08:54:10.353Z,28.40
2022-12-16T08:55:05.799Z,35.40
2022-12-16T08:56:01.181Z,32.30
2022-12-16T08:56:56.670Z,31.20
2022-12-16T08:57:51.989Z,29.60
2022-12-16T08:58:51.449Z,31.30
2022-12-16T08:59:46.812Z,31.10
2022-12-16T09:00:42.399Z,31.60
2022-12-16T09:01:37.755Z,30.00
2022-12-16T09:02:33.373Z,30.00
2022-12-16T09:03:28.548Z,29.80
2022-12-16T09:04:23.978Z,27.30
2022-12-16T09:05:19.507Z,26.30
2022-12-16T09:06:14.802Z,33.50
2022-12-16T09:07:10.214Z,29.20
2022-12-16T09:08:05.656Z,31.10
2022-12-16T09:09:01.091Z,26.80
2022-12-16T09:09:56.508Z,27.90
2022-12-16T09:10:52.054Z,29.40
2022-12-16T09:11:47.403Z,28.80
2022-12-16T09:12:42.470Z,29.10
2022-12-16T09:13:37.427Z,31.10
2022-12-16T09:14:32.439Z,29.30
2022-12-16T09:15:27.618Z,28.20
2022-12-16T09:16:22.622Z,30.10
2022-12-16T09:17:17.961Z,27.30
2022-12-16T09:18:12.744Z,32.50
2022-12-16T09:19:07.806Z,27.30
2022-12-16T09:20:02.946Z,28.10
2022-12-16T09:20:57.863Z,25.40
2022-12-16T09:21:54.896Z,29.10
2022-12-16T09:22:49.905Z,27.90
2022-12-16T09:23:44.946Z,32.00
2022-12-16T09:24:40.064Z,27.90
2022-12-16T09:25:36.174Z,32.10
2022-12-16T09:26:31.642Z,29.20
2022-12-16T09:27:26.951Z,29.00
2022-12-16T09:28:22.524Z,29.90
2022-12-16T09:29:17.842Z,32.50
2022-12-16T09:30:13.266Z,31.70
2022-12-16T09:31:08.792Z,31.40
2022-12-16T09:32:04.096Z,34.40
2022-12-16T09:32:59.467Z,33.00
2022-12-16T09:33:54.894Z,37.30
2022-12-16T09:34:50.339Z,38.40
2022-12-16T09:35:45.754Z,32.10
2022-12-16T09:36:41.188Z,37.90
2022-12-16T09:37:36.653Z,34.40
2022-12-16T09:38:31.679Z,31.20
2022-12-16T09:39:26.685Z,30.80
2022-12-16T09:40:21.960Z,26.70
2022-12-16T09:41:16.994Z,30.40
2022-12-16T09:42:12.062Z,30.70
2022-12-16T09:43:07.047Z,28.20
2022-12-16T09:44:02.073Z,26.30
2022-12-16T09:44:59.393Z,26.20
2022-12-16T09:45:54.571Z,28.10
2022-12-16T09:46:49.514Z,26.10
2022-12-16T09:47:44.522Z,29.90
2022-12-16T09:48:39.515Z,28.20
2022-12-16T09:49:34.541Z,28.50
2022-12-16T09:50:29.552Z,27.40
2022-12-16T09:51:24.675Z,25.90
2022-12-16T09:52:19.784Z,29.30
2022-12-16T09:53:14.871Z,28.90
2022-12-16T09:54:09.833Z,25.00
2022-12-16T09:55:04.905Z,25.70
2022-12-16T09:56:00.021Z,26.50
2022-12-16T09:56:55.472Z,29.10
2022-12-16T09:57:51.632Z,30.40
2022-12-16T09:58:45.828Z,27.80
2022-12-16T09:59:41.220Z,25.10
2022-12-16T10:00:36.805Z,26.40
2022-12-16T10:01:32.304Z,28.30
2022-12-16T10:02:27.683Z,27.60
2022-12-16T10:03:23.313Z,29.60
2022-12-16T10:04:18.533Z,25.40
2022-12-16T10:05:13.833Z,27.80
2022-12-16T10:06:09.283Z,28.30
2022-12-16T10:07:04.700Z,27.00
2022-12-16T10:08:04.181Z,28.00
2022-12-16T10:08:59.711Z,25.20
2022-12-16T10:09:54.981Z,30.80
2022-12-16T10:10:50.445Z,25.20
2022-12-16T10:11:45.941Z,24.90
2022-12-16T10:12:41.382Z,25.60
2022-12-16T10:13:37.106Z,24.50
2022-12-16T10:14:32.350Z,30.20
2022-12-16T10:15:27.951Z,31.50
2022-12-16T10:16:23.363Z,24.30
2022-12-16T10:17:18.747Z,28.00
2022-12-16T10:18:14.354Z,30.80
2022-12-16T10:19:09.676Z,25.20
2022-12-16T10:20:09.151Z,27.20
2022-12-16T10:21:00.659Z,27.00
2022-12-16T10:21:56.083Z,29.00
2022-12-16T10:22:51.595Z,33.60
2022-12-16T10:23:46.936Z,36.40
2022-12-16T10:24:42.064Z,28.10
2022-12-16T10:25:37.094Z,27.10
2022-12-16T10:26:32.150Z,26.10
2022-12-16T10:27:27.199Z,28.60
2022-12-16T10:28:22.236Z,24.90
2022-12-16T10:29:17.240Z,27.30
2022-12-16T10:30:12.323Z,26.70
2022-12-16T10:31:08.123Z,27.50
2022-12-16T10:32:03.122Z,25.70
2022-12-16T10:32:58.126Z,26.10
2022-12-16T10:33:53.200Z,28.30
2022-12-16T10:34:48.168Z,23.70
2022-12-16T10:35:43.363Z,24.80
2022-12-16T10:36:38.378Z,23.80
2022-12-16T10:37:33.416Z,23.90
2022-12-16T10:38:28.417Z,24.80
2022-12-16T10:39:23.434Z,23.80
2022-12-16T10:40:18.474Z,27.60
2022-12-16T10:41:13.520Z,25.50
2022-12-16T10:42:08.525Z,25.70
2022-12-16T10:43:04.112Z,22.70
2022-12-16T10:43:59.426Z,23.70
2022-12-16T10:44:55.727Z,25.40
2022-12-16T10:45:50.285Z,29.40
2022-12-16T10:46:45.746Z,29.30
2022-12-16T10:47:41.134Z,29.00
2022-12-16T10:48:36.974Z,27.40
2022-12-16T10:49:32.101Z,27.90
2022-12-16T10:50:27.498Z,27.60
2022-12-16T10:51:22.966Z,29.00
2022-12-16T10:52:18.376Z,29.30
2022-12-16T10:53:13.779Z,28.50
2022-12-16T10:54:13.013Z,29.90
2022-12-16T10:55:08.440Z,25.80
2022-12-16T10:56:04.019Z,32.50
2022-12-16T10:56:59.450Z,31.40
2022-12-16T10:57:54.888Z,30.60
2022-12-16T10:58:50.324Z,33.90
2022-12-16T10:59:46.349Z,27.40
2022-12-16T11:00:41.956Z,30.40
2022-12-16T11:01:37.391Z,37.30
2022-12-16T11:02:32.784Z,37.60
2022-12-16T11:03:28.134Z,29.00
2022-12-16T11:04:23.088Z,31.70
2022-12-16T11:05:18.220Z,31.40
2022-12-16T11:06:13.222Z,25.60
2022-12-16T11:07:08.368Z,33.70
2022-12-16T11:08:03.461Z,27.90
2022-12-16T11:08:58.463Z,25.60
2022-12-16T11:09:53.532Z,30.60
2022-12-16T11:10:48.619Z,31.50
2022-12-16T11:11:43.634Z,28.70
2022-12-16T11:12:38.677Z,27.30
2022-12-16T11:13:33.955Z,28.70
2022-12-16T11:14:28.727Z,28.70
2022-12-16T11:15:30.943Z,27.00
2022-12-16T11:16:19.905Z,30.60
2022-12-16T11:17:16.375Z,30.00
2022-12-16T11:18:11.795Z,27.50
2022-12-16T11:19:07.363Z,32.20
2022-12-16T11:20:02.715Z,32.80
2022-12-16T11:20:58.260Z,35.20
2022-12-16T11:21:53.713Z,29.10
2022-12-16T11:22:49.165Z,33.10
2022-12-16T11:23:44.710Z,30.80
2022-12-16T11:24:40.166Z,32.30
2022-12-16T11:25:35.638Z,33.00
2022-12-16T11:26:36.371Z,30.80
2022-12-16T11:27:27.583Z,31.40
2022-12-16T11:28:22.075Z,30.80
2022-12-16T11:29:17.507Z,34.10
2022-12-16T11:30:12.930Z,32.20
2022-12-16T11:31:08.012Z,30.10
2022-12-16T11:32:07.675Z,31.20
2022-12-16T11:33:03.091Z,32.10
2022-12-16T11:33:58.539Z,32.80
2022-12-16T11:34:53.966Z,30.50
2022-12-16T11:35:49.338Z,31.60
2022-12-16T11:36:44.815Z,26.00
2022-12-16T11:37:40.207Z,31.30
2022-12-16T11:38:35.649Z,31.50
2022-12-16T11:39:31.233Z,30.60
2022-12-16T11:40:26.652Z,31.30
2022-12-16T11:41:22.054Z,31.60
2022-12-16T11:42:17.483Z,28.10
2022-12-16T11:43:16.937Z,30.70
2022-12-16T11:44:08.404Z,26.30
2022-12-16T11:45:03.763Z,28.40
2022-12-16T11:45:59.203Z,26.50
2022-12-16T11:46:58.710Z,27.00
2022-12-16T11:47:54.015Z,31.10
2022-12-16T11:48:49.440Z,26.60
2022-12-16T11:49:44.894Z,32.40
2022-12-16T11:50:40.291Z,29.00
2022-12-16T11:51:35.720Z,30.20
2022-12-16T11:52:38.202Z,31.30
2022-12-16T11:53:27.590Z,28.30